Time;durP1;ratioP1;P1;durP2;ratioP2;P2;SDS_P1;SDS_P2;PMS_P1;PMS_P2;Temp;Humidity;BMP_temperature;BMP_pressure;BME280_temperature;BME280_humidity;BME280_pressure;Samples;Min_cycle;Max_cycle;Signal;HPM_P1;HPM_P2
2021/12/31 00:01:45;;;;;;;;;12.00;8.00;;;;;12.13;79.23;101827.78;5081632;27;45532;-67
2021/12/31 00:04:10;;;;;;;;;11.67;10.33;;;;;11.99;79.01;101814.03;5084155;27;45378;-67
2021/12/31 00:06:36;;;;;;;;;8.67;7.67;;;;;12.07;80.49;101832.84;5087166;27;45347;-67
2021/12/31 00:09:05;;;;;;;;;10.00;10.00;;;;;12.11;79.14;101836.50;5088158;27;44752;-67
2021/12/31 00:11:30;;;;;;;;;11.33;9.00;;;;;12.04;80.06;101824.78;5089344;27;45449;-67
2021/12/31 00:13:55;;;;;;;;;10.33;8.00;;;;;12.07;79.49;101833.75;5082591;27;46239;-67
2021/12/31 00:16:21;;;;;;;;;13.33;9.00;;;;;12.03;79.28;101821.22;5090333;27;45293;-67
2021/12/31 00:18:46;;;;;;;;;9.00;8.00;;;;;12.04;79.36;101825.72;5084019;27;45275;-67
2021/12/31 00:21:11;;;;;;;;;10.33;10.33;;;;;11.91;79.92;101796.06;5088782;27;45986;-67
2021/12/31 00:23:37;;;;;;;;;11.33;10.33;;;;;11.93;80.04;101812.91;5083438;27;46191;-67
2021/12/31 00:26:02;;;;;;;;;11.67;11.67;;;;;11.90;78.85;101813.69;5090118;27;45387;-67
2021/12/31 00:28:28;;;;;;;;;14.00;11.33;;;;;11.82;79.05;101807.22;5083056;27;45720;-67
2021/12/31 00:30:54;;;;;;;;;9.67;8.00;;;;;11.83;80.25;101815.22;5092399;27;45313;-67
2021/12/31 00:33:22;;;;;;;;;9.00;9.00;;;;;11.79;79.75;101805.38;5086554;27;46596;-67
2021/12/31 00:35:47;;;;;;;;;12.67;11.67;;;;;11.78;80.02;101816.78;5097992;27;45442;-67
2021/12/31 00:38:13;;;;;;;;;12.00;12.00;;;;;11.78;79.54;101818.53;5096061;27;45418;-67
2021/12/31 00:40:39;;;;;;;;;10.00;7.00;;;;;11.71;80.35;101813.88;5090097;27;45248;-68
2021/12/31 00:43:06;;;;;;;;;12.00;9.33;;;;;11.75;79.42;101821.97;5097429;27;45642;-67
2021/12/31 00:45:36;;;;;;;;;14.25;11.25;;;;;11.70;80.05;101814.72;5090828;27;45297;-67
2021/12/31 00:48:02;;;;;;;;;13.33;8.33;;;;;11.72;79.37;101824.53;5085367;27;45484;-67
2021/12/31 00:50:27;;;;;;;;;12.33;12.33;;;;;11.66;79.90;101816.34;5089550;27;45512;-67
2021/12/31 00:52:53;;;;;;;;;15.67;11.00;;;;;11.62;80.02;101812.72;5086593;27;45478;-67
2021/12/31 00:55:18;;;;;;;;;14.33;11.00;;;;;11.59;79.43;101814.31;5088760;27;45405;-67
2021/12/31 00:57:43;;;;;;;;;18.00;13.25;;;;;11.58;81.28;101809.88;5087094;27;45215;-67
2021/12/31 01:00:12;;;;;;;;;10.00;7.50;;;;;11.58;79.88;101813.41;5086406;27;45478;-67
2021/12/31 01:02:39;;;;;;;;;11.67;10.33;;;;;11.56;79.40;101806.25;5086127;27;45507;-67
2021/12/31 01:05:05;;;;;;;;;13.00;10.67;;;;;11.58;81.30;101817.81;5088831;27;45441;-67
2021/12/31 01:07:31;;;;;;;;;15.25;12.00;;;;;11.36;80.47;101774.66;5086530;27;45358;-67
2021/12/31 01:09:57;;;;;;;;;13.25;12.25;;;;;11.52;80.34;101804.38;5084942;27;46754;-67
2021/12/31 01:12:24;;;;;;;;;12.75;11.50;;;;;11.48;79.34;101795.38;5084922;27;46123;-67
2021/12/31 01:15:05;;;;;;;;;16.75;9.75;;;;;11.50;81.60;101798.09;5092977;27;45325;-67
2021/12/31 01:20:04;;;;;;;;;14.75;12.00;;;;;11.43;81.39;101803.19;5092416;27;45457;-67
2021/12/31 01:22:31;;;;;;;;;10.00;8.25;;;;;11.37;79.07;101784.44;5096518;27;47476;-68
2021/12/31 01:24:57;;;;;;;;;13.75;12.00;;;;;11.41;79.94;101788.97;5093796;27;45250;-67
2021/12/31 01:27:23;;;;;;;;;12.00;11.00;;;;;11.39;80.32;101790.66;5080854;27;45308;-67
2021/12/31 01:29:49;;;;;;;;;15.00;12.00;;;;;11.45;79.69;101800.56;5089405;27;45348;-67
2021/12/31 01:32:14;;;;;;;;;12.00;11.25;;;;;11.37;79.67;101802.97;5081598;27;45487;-67
2021/12/31 01:34:40;;;;;;;;;12.00;9.00;;;;;11.39;79.55;101818.88;5086074;27;45267;-67
2021/12/31 01:37:08;;;;;;;;;12.75;8.75;;;;;11.27;79.37;101811.38;5094238;27;45204;-67
2021/12/31 01:39:34;;;;;;;;;12.00;9.75;;;;;11.23;79.95;101811.19;5093209;27;45488;-67
2021/12/31 01:42:01;;;;;;;;;11.50;11.25;;;;;11.23;79.12;101806.84;5092726;27;45358;-67
2021/12/31 01:44:36;;;;;;;;;11.00;10.75;;;;;11.25;78.93;101810.41;5085163;27;47366;-67
2021/12/31 01:47:08;;;;;;;;;12.00;12.00;;;;;11.13;78.57;101805.56;5089348;27;45428;-68
2021/12/31 01:49:36;;;;;;;;;14.00;12.75;;;;;11.09;80.22;101808.97;5086035;27;45294;-67
2021/12/31 01:52:03;;;;;;;;;13.50;12.50;;;;;11.15;80.46;101822.41;5088029;27;47279;-67
2021/12/31 01:54:30;;;;;;;;;12.75;12.75;;;;;11.01;79.68;101805.13;5084819;27;45303;-67
2021/12/31 01:56:58;;;;;;;;;12.00;9.50;;;;;11.03;80.88;101806.06;5087316;27;45282;-67
2021/12/31 01:59:24;;;;;;;;;11.00;11.00;;;;;10.97;80.10;101808.47;5086758;27;45448;-67
2021/12/31 02:01:50;;;;;;;;;11.25;11.00;;;;;11.00;79.75;101810.34;5085751;27;46473;-67
2021/12/31 02:04:16;;;;;;;;;14.25;10.25;;;;;10.95;80.42;101808.44;5081847;27;45367;-67
2021/12/31 02:06:41;;;;;;;;;12.25;12.25;;;;;10.98;79.58;101810.28;5084491;27;45723;-67
2021/12/31 02:09:06;;;;;;;;;15.25;10.75;;;;;10.93;80.82;101799.53;5086778;27;45489;-67
2021/12/31 02:11:33;;;;;;;;;14.00;11.75;;;;;10.91;81.19;101800.28;5086616;27;46150;-67
2021/12/31 02:14:00;;;;;;;;;11.00;10.50;;;;;10.94;80.20;101803.94;5081819;27;45255;-67
2021/12/31 02:16:26;;;;;;;;;7.00;7.00;;;;;10.89;79.89;101807.25;5082122;27;45243;-67
2021/12/31 02:18:51;;;;;;;;;12.00;12.00;;;;;10.91;79.92;101802.94;5081343;27;45154;-67
2021/12/31 02:21:17;;;;;;;;;10.25;9.50;;;;;10.78;79.65;101782.13;5088229;27;46489;-67
2021/12/31 02:23:45;;;;;;;;;13.75;12.50;;;;;10.90;80.99;101803.78;5083158;27;45280;-67
2021/12/31 02:26:12;;;;;;;;;12.75;12.75;;;;;10.82;81.13;101795.56;5089353;27;45318;-67
2021/12/31 02:28:38;;;;;;;;;10.50;9.75;;;;;10.86;80.73;101799.22;5081517;27;45533;-67
2021/12/31 02:31:04;;;;;;;;;11.75;11.00;;;;;10.79;80.16;101792.78;5089196;27;47321;-67
2021/12/31 02:33:33;;;;;;;;;12.00;12.00;;;;;10.80;79.93;101798.97;5082614;27;46060;-67
2021/12/31 02:36:01;;;;;;;;;16.75;14.50;;;;;10.73;80.52;101784.63;5094522;27;45458;-67
2021/12/31 02:38:27;;;;;;;;;15.75;13.75;;;;;10.78;80.87;101790.06;5098477;27;45445;-67
2021/12/31 02:40:52;;;;;;;;;5.75;5.50;;;;;10.73;80.12;101780.22;5099129;27;46333;-67
2021/12/31 02:43:18;;;;;;;;;10.00;10.00;;;;;10.67;81.34;101769.41;5088234;27;45471;-67
2021/12/31 02:45:43;;;;;;;;;10.00;10.00;;;;;10.72;80.28;101778.41;5092385;27;45197;-67
2021/12/31 02:48:09;;;;;;;;;13.75;11.00;;;;;10.70;80.59;101780.09;5087281;27;45224;-67
2021/12/31 02:50:39;;;;;;;;;11.00;10.75;;;;;10.65;80.01;101770.19;5092982;27;46248;-67
2021/12/31 02:53:08;;;;;;;;;14.75;12.00;;;;;10.60;80.87;101759.41;5086635;27;45375;-67
2021/12/31 02:55:35;;;;;;;;;15.75;13.00;;;;;10.62;79.95;101762.16;5091605;27;45306;-67
2021/12/31 02:58:03;;;;;;;;;15.00;13.75;;;;;10.36;79.48;101724.06;5085599;27;45596;-67
2021/12/31 03:00:30;;;;;;;;;15.00;13.25;;;;;10.56;79.83;101772.44;5096510;27;46582;-67
2021/12/31 03:02:59;;;;;;;;;17.75;12.75;;;;;10.47;80.01;101763.34;5085538;27;45343;-67
2021/12/31 03:05:26;;;;;;;;;14.00;12.00;;;;;10.48;79.97;101770.41;5090724;27;45488;-67
2021/12/31 03:07:53;;;;;;;;;15.50;11.00;;;;;10.47;79.93;101772.97;5088219;27;45503;-67
2021/12/31 03:10:21;;;;;;;;;15.00;12.00;;;;;10.48;79.94;101781.00;5094198;27;46292;-67
2021/12/31 03:12:49;;;;;;;;;12.50;9.75;;;;;10.42;79.92;101778.09;5082126;27;45489;-67
2021/12/31 03:15:14;;;;;;;;;15.50;13.50;;;;;10.41;80.32;101783.31;5093627;27;45288;-67
2021/12/31 03:17:41;;;;;;;;;11.00;11.00;;;;;10.38;78.98;101796.41;5081759;27;45322;-67
2021/12/31 03:20:12;;;;;;;;;11.25;11.00;;;;;10.39;78.47;101803.47;5095907;27;47586;-67
2021/12/31 03:22:39;;;;;;;;;18.00;13.25;;;;;10.27;79.24;101798.59;5081809;27;45178;-67
2021/12/31 03:25:06;;;;;;;;;14.00;12.00;;;;;10.27;78.84;101806.53;5093314;27;45473;-67
2021/12/31 03:27:32;;;;;;;;;14.50;12.00;;;;;10.21;79.54;101806.25;5081922;27;45244;-67
2021/12/31 03:29:58;;;;;;;;;12.50;12.00;;;;;10.26;79.52;101820.56;5087104;27;45276;-67
2021/12/31 03:32:23;;;;;;;;;12.50;10.50;;;;;10.21;78.73;101825.63;5081704;27;45355;-67
2021/12/31 03:34:48;;;;;;;;;13.00;13.00;;;;;10.07;79.18;101798.63;5088032;27;45329;-67
2021/12/31 03:37:14;;;;;;;;;15.50;12.00;;;;;10.05;78.70;101797.69;5095391;27;46037;-67
2021/12/31 03:39:39;;;;;;;;;15.25;11.75;;;;;10.06;79.46;101793.31;5095304;27;45681;-67
2021/12/31 03:42:05;;;;;;;;;16.00;14.25;;;;;9.97;79.58;101769.13;5094136;27;45342;-67
2021/12/31 03:44:30;;;;;;;;;13.00;12.75;;;;;9.96;81.85;101770.88;5087444;27;45847;-67
2021/12/31 03:46:55;;;;;;;;;18.75;14.50;;;;;9.94;81.04;101769.91;5091137;27;45395;-67
2021/12/31 03:49:20;;;;;;;;;19.25;19.25;;;;;9.89;81.10;101759.97;5085730;27;46461;-67
2021/12/31 03:51:46;;;;;;;;;16.50;15.75;;;;;9.99;80.53;101771.00;5092197;27;45353;-67
2021/12/31 03:54:11;;;;;;;;;15.25;12.25;;;;;9.95;79.52;101758.50;5085198;27;45329;-67
2021/12/31 03:56:36;;;;;;;;;17.50;15.50;;;;;9.95;81.52;101745.31;5089668;27;46264;-67
2021/12/31 03:59:02;;;;;;;;;17.00;13.75;;;;;10.01;82.06;101752.56;5084867;27;47983;-67
2021/12/31 04:01:28;;;;;;;;;17.00;15.25;;;;;10.02;80.32;101749.09;5089683;27;45253;-67
2021/12/31 04:03:55;;;;;;;;;17.00;14.00;;;;;10.09;81.07;101761.72;5083863;27;45249;-67
2021/12/31 04:06:23;;;;;;;;;17.00;15.00;;;;;10.08;80.56;101746.69;5087097;27;45229;-67
2021/12/31 04:08:50;;;;;;;;;17.25;14.50;;;;;10.07;79.99;101742.25;5088014;27;45328;-67
2021/12/31 04:11:16;;;;;;;;;16.50;14.00;;;;;10.11;80.97;101751.22;5090077;27;45376;-67
2021/12/31 04:13:41;;;;;;;;;16.50;15.25;;;;;10.09;81.09;101751.16;5083819;27;45323;-67
2021/12/31 04:16:06;;;;;;;;;18.25;14.25;;;;;10.10;81.15;101752.94;5090148;27;45586;-67
2021/12/31 04:18:32;;;;;;;;;17.75;13.50;;;;;10.13;80.59;101745.16;5089534;27;45449;-67
2021/12/31 04:20:58;;;;;;;;;16.25;13.25;;;;;10.18;80.73;101745.34;5091606;27;45756;-67
2021/12/31 04:23:29;;;;;;;;;16.50;15.25;;;;;10.13;80.04;101717.84;5082794;27;45172;-67
2021/12/31 04:25:55;;;;;;;;;14.00;14.00;;;;;10.21;79.85;101724.34;5090101;27;45869;-67
2021/12/31 04:28:21;;;;;;;;;13.25;13.00;;;;;10.18;79.45;101726.84;5082092;27;45478;-67
2021/12/31 04:30:46;;;;;;;;;17.25;14.50;;;;;10.19;79.72;101731.28;5099051;27;45322;-67
2021/12/31 04:33:12;;;;;;;;;11.50;10.00;;;;;10.15;80.44;101735.56;5087537;27;45249;-67
2021/12/31 04:35:37;;;;;;;;;15.00;12.25;;;;;10.13;79.51;101718.72;5090076;27;45350;-67
2021/12/31 04:38:03;;;;;;;;;15.00;12.50;;;;;10.13;79.25;101724.00;5097269;27;46445;-67
2021/12/31 04:40:28;;;;;;;;;14.00;12.25;;;;;10.13;79.54;101729.28;5092428;27;45144;-67
2021/12/31 04:42:53;;;;;;;;;14.25;12.75;;;;;10.03;78.99;101720.09;5088936;27;45738;-67
2021/12/31 04:45:19;;;;;;;;;11.25;11.25;;;;;10.01;78.77;101720.88;5089696;27;45539;-67
2021/12/31 04:47:45;;;;;;;;;11.00;11.00;;;;;10.02;78.45;101742.06;5088480;27;45442;-67
2021/12/31 04:50:11;;;;;;;;;12.25;11.50;;;;;9.95;78.73;101742.66;5087007;27;45250;-67
2021/12/31 04:52:37;;;;;;;;;12.00;12.00;;;;;9.85;79.69;101730.78;5088386;27;45320;-67
2021/12/31 04:55:03;;;;;;;;;10.25;10.00;;;;;9.92;78.75;101753.09;5084194;27;47471;-67
2021/12/31 04:57:29;;;;;;;;;13.50;13.00;;;;;9.88;79.28;101747.59;5088014;27;45430;-67
2021/12/31 04:59:54;;;;;;;;;12.50;10.75;;;;;9.78;80.33;101730.50;5083826;27;45272;-67
2021/12/31 05:02:19;;;;;;;;;10.00;10.00;;;;;9.75;80.95;101725.09;5086933;27;45276;-67
2021/12/31 05:04:45;;;;;;;;;12.00;9.75;;;;;9.84;80.44;101739.56;5083100;27;45322;-67
2021/12/31 05:07:11;;;;;;;;;11.50;9.75;;;;;9.84;80.14;101750.13;5085762;27;45914;-67
2021/12/31 05:09:36;;;;;;;;;12.50;9.75;;;;;9.79;78.91;101745.47;5091673;27;45440;-67
2021/12/31 05:12:04;;;;;;;;;9.75;8.75;;;;;9.84;79.66;101757.16;5084969;27;45338;-67
2021/12/31 05:14:30;;;;;;;;;9.00;9.00;;;;;9.69;79.45;101738.94;5086195;27;45523;-67
2021/12/31 05:16:55;;;;;;;;;10.25;9.00;;;;;9.80;79.99;101750.84;5085172;27;46181;-67
2021/12/31 05:19:21;;;;;;;;;10.75;8.00;;;;;9.74;79.06;101736.47;5084806;27;45231;-66
2021/12/31 05:21:46;;;;;;;;;10.00;9.00;;;;;9.63;79.65;101726.38;5098842;27;45228;-67
2021/12/31 05:24:14;;;;;;;;;10.00;9.25;;;;;9.64;79.35;101740.47;5093626;27;45245;-67
2021/12/31 05:26:39;;;;;;;;;10.25;9.75;;;;;9.60;80.06;101735.88;5087888;27;45739;-67
2021/12/31 05:29:05;;;;;;;;;9.00;8.75;;;;;9.60;79.82;101733.22;5085745;27;45424;-67
2021/12/31 05:31:30;;;;;;;;;10.75;8.50;;;;;9.56;79.83;101729.56;5092062;27;45464;-66
2021/12/31 05:33:55;;;;;;;;;6.00;6.00;;;;;9.59;79.19;101727.03;5084642;27;45567;-67
2021/12/31 05:36:21;;;;;;;;;12.50;9.50;;;;;9.61;80.08;101716.56;5090254;27;46190;-67
2021/12/31 05:38:46;;;;;;;;;12.00;10.00;;;;;9.60;79.71;101709.47;5094532;27;45488;-67
2021/12/31 05:41:12;;;;;;;;;10.50;7.75;;;;;9.59;80.56;101700.66;5086018;27;45854;-66
2021/12/31 05:43:38;;;;;;;;;10.75;10.00;;;;;9.61;80.24;101698.09;5082357;27;45340;-67
2021/12/31 05:46:03;;;;;;;;;11.50;9.50;;;;;9.62;80.13;101689.31;5092227;27;45549;-67
2021/12/31 05:48:29;;;;;;;;;11.50;9.00;;;;;9.62;80.82;101684.03;5082780;27;45491;-67
2021/12/31 05:50:55;;;;;;;;;12.00;9.25;;;;;9.72;79.58;101690.59;5090035;27;45233;-67
2021/12/31 05:53:20;;;;;;;;;10.75;9.75;;;;;9.71;80.03;101687.06;5080853;27;46279;-67
2021/12/31 05:55:46;;;;;;;;;7.50;6.75;;;;;9.73;80.09;101690.69;5082551;27;47045;-67
2021/12/31 05:58:11;;;;;;;;;4.75;4.75;;;;;9.74;80.29;101703.03;5079845;27;45237;-67
2021/12/31 06:00:36;;;;;;;;;9.75;9.00;;;;;9.77;80.40;101708.44;5087230;27;45366;-67
2021/12/31 06:03:02;;;;;;;;;14.00;8.00;;;;;9.72;80.17;101701.16;5081227;27;45487;-67
2021/12/31 06:05:27;;;;;;;;;12.00;10.00;;;;;9.79;80.25;101727.00;5085254;27;46267;-67
2021/12/31 06:07:56;;;;;;;;;9.25;9.00;;;;;9.74;79.87;101724.16;5085458;27;45652;-67
2021/12/31 06:10:22;;;;;;;;;8.50;8.50;;;;;9.77;79.74;101737.47;5091003;27;45378;-67
2021/12/31 06:12:56;;;;;;;;;7.25;7.25;;;;;9.77;79.31;101731.31;5079573;27;45358;-67
2021/12/31 06:15:21;;;;;;;;;8.00;6.50;;;;;9.61;80.23;101717.47;5093234;27;46370;-67
2021/12/31 06:17:47;;;;;;;;;9.00;8.75;;;;;9.71;79.51;101731.94;5078987;28;45308;-67
2021/12/31 06:20:12;;;;;;;;;11.25;11.25;;;;;9.59;80.66;101702.41;5090811;27;45434;-67
2021/12/31 06:22:38;;;;;;;;;6.75;4.50;;;;;9.68;81.46;101726.53;5079277;27;45414;-67
2021/12/31 06:25:04;;;;;;;;;9.50;8.00;;;;;9.66;81.76;101716.75;5085281;27;47157;-67
2021/12/31 06:27:29;;;;;;;;;6.50;6.50;;;;;9.62;80.43;101703.41;5079237;27;45233;-67
2021/12/31 06:29:55;;;;;;;;;7.75;7.75;;;;;9.69;80.34;101714.22;5087895;27;45381;-67
2021/12/31 06:32:20;;;;;;;;;4.75;4.75;;;;;9.69;80.09;101712.53;5091759;27;45388;-67
2021/12/31 06:34:45;;;;;;;;;9.50;5.25;;;;;9.76;78.96;101711.03;5082420;27;48255;-67
2021/12/31 06:37:11;;;;;;;;;8.00;4.75;;;;;9.83;80.02;101721.00;5093688;27;45303;-67
2021/12/31 06:39:37;;;;;;;;;7.25;7.00;;;;;9.85;79.08;101717.59;5089112;27;47005;-67
2021/12/31 06:42:03;;;;;;;;;10.00;9.75;;;;;9.80;79.81;101708.59;5086051;27;46297;-67
2021/12/31 06:44:30;;;;;;;;;8.00;8.00;;;;;9.89;79.98;101733.56;5092627;27;45300;-67
2021/12/31 06:46:55;;;;;;;;;6.50;6.50;;;;;9.84;79.64;101730.75;5088217;27;45445;-67
2021/12/31 06:49:21;;;;;;;;;8.50;6.00;;;;;9.85;79.02;101727.25;5083686;27;45353;-67
2021/12/31 06:51:46;;;;;;;;;8.25;6.25;;;;;9.84;79.46;101722.81;5088754;27;45314;-67
2021/12/31 06:54:11;;;;;;;;;12.50;8.50;;;;;9.85;79.50;101708.78;5082085;27;45470;-67
2021/12/31 06:56:37;;;;;;;;;9.75;9.75;;;;;9.80;79.71;101700.69;5087788;27;45255;-67
2021/12/31 06:59:02;;;;;;;;;10.00;7.25;;;;;9.77;79.23;101702.25;5081591;27;45404;-67
2021/12/31 07:01:27;;;;;;;;;6.75;6.75;;;;;9.78;79.47;101723.47;5086116;27;45614;-67
2021/12/31 07:03:53;;;;;;;;;6.00;6.00;;;;;9.74;79.60;101737.34;5081132;27;45411;-67
2021/12/31 07:06:18;;;;;;;;;10.25;9.50;;;;;9.69;79.76;101738.00;5083542;27;45311;-67
2021/12/31 07:08:45;;;;;;;;;12.50;11.00;;;;;9.75;79.31;101748.84;5086212;27;45401;-67
2021/12/31 07:11:11;;;;;;;;;12.50;9.25;;;;;9.67;78.90;101745.88;5087642;27;45513;-67
2021/12/31 07:13:37;;;;;;;;;14.50;10.50;;;;;9.61;78.91;101748.25;5080990;27;45197;-67
2021/12/31 07:16:03;;;;;;;;;24.75;20.50;;;;;9.67;79.76;101761.72;5087532;27;45394;-67
2021/12/31 07:18:28;;;;;;;;;22.75;19.50;;;;;9.66;79.41;101780.09;5080049;27;45517;-67
2021/12/31 07:20:54;;;;;;;;;19.00;17.00;;;;;9.58;79.11;101754.28;5089290;27;45995;-67
2021/12/31 07:23:21;;;;;;;;;21.25;18.75;;;;;9.61;79.06;101769.38;5097062;27;47883;-66
2021/12/31 07:25:46;;;;;;;;;16.00;15.25;;;;;9.62;79.51;101771.16;5092752;27;45365;-67
2021/12/31 07:28:13;;;;;;;;;19.00;17.00;;;;;9.57;79.54;101752.47;5082311;27;45354;-67
2021/12/31 07:30:39;;;;;;;;;16.25;14.25;;;;;9.48;79.56;101748.53;5091497;27;45459;-67
2021/12/31 07:33:05;;;;;;;;;15.00;10.75;;;;;9.55;79.68;101775.28;5090068;27;46076;-67
2021/12/31 07:35:31;;;;;;;;;13.50;11.00;;;;;9.47;80.07;101754.66;5088402;27;45673;-67
2021/12/31 07:37:57;;;;;;;;;12.25;12.25;;;;;9.43;80.20;101748.31;5099320;27;45219;-67
2021/12/31 07:40:37;;;;;;;;;10.75;10.50;;;;;9.43;80.51;101739.50;5093760;27;45190;-67
2021/12/31 07:43:04;;;;;;;;;10.00;8.75;;;;;9.51;81.20;101744.28;5108489;27;45417;-67
2021/12/31 07:45:30;;;;;;;;;9.25;9.25;;;;;9.50;80.03;101736.31;5091684;27;45384;-67
2021/12/31 07:47:55;;;;;;;;;11.75;9.00;;;;;9.53;80.53;101731.16;5088269;27;45881;-66
2021/12/31 07:50:20;;;;;;;;;7.50;7.25;;;;;9.56;80.59;101733.94;5088998;27;45212;-67
2021/12/31 07:52:45;;;;;;;;;9.75;8.00;;;;;9.61;80.65;101748.25;5088263;27;46292;-67
2021/12/31 07:55:11;;;;;;;;;10.50;9.00;;;;;9.58;80.92;101745.47;5086493;27;45241;-67
2021/12/31 07:57:37;;;;;;;;;8.75;6.75;;;;;9.62;80.56;101752.69;5088892;27;45489;-67
2021/12/31 08:00:04;;;;;;;;;8.75;6.25;;;;;9.66;80.46;101751.06;5085451;27;45453;-66
2021/12/31 08:02:29;;;;;;;;;10.25;6.75;;;;;9.66;80.77;101756.34;5087240;27;46717;-66
2021/12/31 08:04:55;;;;;;;;;7.00;7.00;;;;;9.65;80.50;101773.94;5088422;27;45389;-67
2021/12/31 08:07:20;;;;;;;;;12.75;11.25;;;;;9.68;80.37;101768.78;5086038;27;45360;-67
2021/12/31 08:09:46;;;;;;;;;10.50;8.75;;;;;9.72;79.92;101786.56;5095687;27;45442;-67
2021/12/31 08:12:11;;;;;;;;;21.50;18.25;;;;;9.67;79.75;101766.97;5084571;27;46255;-66
2021/12/31 08:14:36;;;;;;;;;12.75;12.50;;;;;9.83;80.20;101800.22;5088607;27;45329;-66
2021/12/31 08:17:02;;;;;;;;;16.75;15.75;;;;;9.79;80.25;101782.44;5085822;27;45389;-66
2021/12/31 08:19:27;;;;;;;;;12.75;12.75;;;;;9.80;80.54;101768.41;5086207;27;45527;-66
2021/12/31 08:21:52;;;;;;;;;16.25;12.50;;;;;9.88;79.95;101776.66;5087717;27;47476;-66
2021/12/31 08:24:18;;;;;;;;;25.00;18.25;;;;;9.91;80.27;101777.69;5084828;27;45330;-67
2021/12/31 08:26:43;;;;;;;;;14.25;10.50;;;;;9.95;80.10;101779.63;5088653;27;45297;-67
2021/12/31 08:29:12;;;;;;;;;11.25;11.25;;;;;9.96;80.11;101767.31;5099598;27;47047;-67
2021/12/31 08:31:38;;;;;;;;;12.25;9.00;;;;;10.01;80.33;101764.03;5092855;27;46641;-66
2021/12/31 08:34:03;;;;;;;;;9.75;9.00;;;;;10.12;79.40;101790.91;5085092;27;45316;-67
2021/12/31 08:36:28;;;;;;;;;9.25;9.00;;;;;10.07;79.75;101781.88;5090439;27;45223;-67
2021/12/31 08:38:54;;;;;;;;;10.50;9.75;;;;;10.13;79.34;101787.41;5095317;27;45601;-66
2021/12/31 08:41:19;;;;;;;;;9.00;7.25;;;;;10.12;79.46;101775.06;5095097;27;46899;-67
2021/12/31 08:43:44;;;;;;;;;11.00;11.00;;;;;10.12;79.88;101767.13;5084366;27;45421;-66
2021/12/31 08:46:10;;;;;;;;;9.75;8.50;;;;;10.00;79.95;101750.78;5092312;27;45476;-66
2021/12/31 08:48:35;;;;;;;;;11.50;9.75;;;;;10.15;79.55;101790.13;5109270;27;45243;-66
2021/12/31 08:51:02;;;;;;;;;9.50;9.50;;;;;10.19;79.74;101778.84;5111692;27;47244;-66
2021/12/31 08:53:27;;;;;;;;;15.25;12.75;;;;;10.26;79.97;101788.84;5108372;27;45384;-66
2021/12/31 08:55:52;;;;;;;;;9.75;9.75;;;;;10.37;80.12;101815.75;5105561;27;45583;-66
2021/12/31 08:58:18;;;;;;;;;10.00;9.00;;;;;10.37;79.36;101814.00;5110798;27;45437;-66
2021/12/31 09:00:43;;;;;;;;;12.00;12.00;;;;;10.47;80.06;101828.50;5102466;27;45963;-66
2021/12/31 09:03:08;;;;;;;;;12.00;11.25;;;;;10.52;79.93;101822.56;5109026;27;45316;-66
2021/12/31 09:05:34;;;;;;;;;11.50;10.00;;;;;10.62;79.36;101821.22;5100502;27;45219;-66
2021/12/31 09:07:59;;;;;;;;;11.00;11.00;;;;;10.66;78.97;101828.41;5113144;27;45192;-66
2021/12/31 09:10:25;;;;;;;;;12.00;12.00;;;;;10.69;79.38;101817.06;5092248;27;45426;-66
2021/12/31 09:12:50;;;;;;;;;13.50;8.75;;;;;10.74;79.45;101812.84;5079918;28;45149;-66
2021/12/31 09:15:16;;;;;;;;;14.75;11.25;;;;;10.77;78.78;101812.09;5091563;27;45663;-66
2021/12/31 09:17:41;;;;;;;;;11.00;10.25;;;;;10.77;78.71;101815.63;5092208;27;45404;-66
2021/12/31 09:20:07;;;;;;;;;15.50;14.00;;;;;10.82;78.53;101822.00;5105807;27;46158;-66
2021/12/31 09:22:33;;;;;;;;;12.75;10.00;;;;;10.76;79.19;101803.25;5081900;27;45456;-66
2021/12/31 09:24:59;;;;;;;;;9.50;9.50;;;;;10.83;79.39;101809.66;5086752;27;45349;-66
2021/12/31 09:27:25;;;;;;;;;11.75;10.00;;;;;10.71;78.95;101786.28;5080063;27;45390;-66
2021/12/31 09:29:51;;;;;;;;;12.00;12.00;;;;;10.80;78.34;101798.97;5085412;27;46361;-66
2021/12/31 09:32:17;;;;;;;;;12.75;10.00;;;;;10.78;78.18;101800.66;5079601;27;45828;-66
2021/12/31 09:34:44;;;;;;;;;11.00;11.00;;;;;10.88;78.15;101822.22;5087284;27;45310;-66
2021/12/31 09:37:11;;;;;;;;;14.75;10.75;;;;;10.84;78.62;101822.97;5097401;27;46097;-66
2021/12/31 09:39:36;;;;;;;;;8.50;8.25;;;;;10.87;77.95;101838.97;5105498;27;45512;-66
2021/12/31 09:42:04;;;;;;;;;11.75;11.25;;;;;10.82;78.36;101834.34;5106941;27;45437;-67
2021/12/31 09:44:29;;;;;;;;;14.00;14.00;;;;;10.86;78.56;101850.34;5101768;27;45303;-66
2021/12/31 09:46:54;;;;;;;;;13.50;12.00;;;;;10.88;78.13;101864.56;5088601;27;45421;-66
2021/12/31 09:49:20;;;;;;;;;17.50;15.50;;;;;10.95;77.54;101873.63;5086501;27;47242;-66
2021/12/31 09:51:45;;;;;;;;;18.50;13.75;;;;;10.92;77.71;101861.22;5090259;27;45462;-66
2021/12/31 09:54:12;;;;;;;;;17.25;14.75;;;;;10.95;78.58;101873.63;5082508;27;45370;-66
2021/12/31 09:56:41;;;;;;;;;11.50;11.50;;;;;10.87;77.59;101857.47;5088225;27;45260;-65
2021/12/31 09:59:08;;;;;;;;;10.25;8.25;;;;;10.84;78.87;101854.72;5081535;27;45510;-66
2021/12/31 10:01:42;;;;;;;;;8.25;8.25;;;;;10.97;77.70;101871.97;5084631;27;45644;-66
2021/12/31 10:04:08;;;;;;;;;7.00;6.00;;;;;11.00;77.79;101864.13;5081821;27;44691;-66
2021/12/31 10:06:33;;;;;;;;;13.50;8.00;;;;;11.05;78.20;101869.63;5098243;27;46165;-66
2021/12/31 10:09:03;;;;;;;;;9.75;7.25;;;;;11.26;76.84;101891.66;5092812;27;45424;-66
2021/12/31 10:11:28;;;;;;;;;10.25;8.25;;;;;11.43;78.23;101894.94;5088317;27;45343;-66
2021/12/31 10:13:55;;;;;;;;;11.75;8.00;;;;;11.63;77.38;101909.84;5082029;27;45639;-66
2021/12/31 10:16:31;;;;;;;;;10.25;9.25;;;;;11.81;77.48;101912.25;5088219;27;45548;-66
2021/12/31 10:19:23;;;;;;;;;13.25;11.50;;;;;12.01;75.59;101910.38;5086556;27;45242;-67
2021/12/31 10:21:51;;;;;;;;;13.25;11.25;;;;;12.09;74.94;101900.94;5080046;27;45345;-66
2021/12/31 10:24:36;;;;;;;;;12.00;9.00;;;;;12.26;74.73;101887.41;5081549;27;45348;-66
2021/12/31 10:27:14;;;;;;;;;10.33;10.33;;;;;12.51;73.97;101894.44;5079554;27;45555;-66
2021/12/31 10:30:04;;;;;;;;;9.33;8.00;;;;;12.69;74.79;101897.72;5084946;27;46012;-67
2021/12/31 10:32:41;;;;;;;;;14.33;10.67;;;;;12.74;74.45;101906.75;5091237;27;45620;-67
2021/12/31 10:35:08;;;;;;;;;11.33;8.33;;;;;12.91;74.67;101931.19;5090627;27;45334;-68
2021/12/31 10:37:41;;;;;;;;;12.67;12.33;;;;;12.97;73.57;101923.41;5095582;27;45320;-68
2021/12/31 10:40:07;;;;;;;;;5.67;5.33;;;;;13.05;72.86;101942.25;5086395;27;45328;-66
2021/12/31 10:42:33;;;;;;;;;10.00;10.00;;;;;13.15;72.84;101952.28;5096457;27;45358;-66
2021/12/31 10:45:03;;;;;;;;;7.00;7.00;;;;;13.25;72.56;101965.84;5089999;27;45346;-66
2021/12/31 10:47:34;;;;;;;;;6.67;6.67;;;;;13.24;73.38;101958.75;5112261;27;46286;-66
2021/12/31 10:49:59;;;;;;;;;9.33;7.00;;;;;13.28;72.76;101964.25;5091863;27;45667;-66
2021/12/31 10:52:29;;;;;;;;;7.33;6.33;;;;;13.22;73.62;101950.75;5086656;27;45363;-66
2021/12/31 10:56:09;;;;;;;;;6.33;5.33;;;;;13.20;72.93;101957.75;5083404;27;45347;-66
2021/12/31 10:58:04;;;;;;;;;6.67;6.33;;;;;13.11;73.17;101925.63;5083524;27;45432;-66
2021/12/31 11:00:33;;;;;;;;;7.00;6.33;;;;;13.20;73.54;101953.34;5089686;27;48015;-66
2021/12/31 11:02:59;;;;;;;;;5.33;4.00;;;;;13.16;73.94;101961.16;5084855;27;45386;-66
2021/12/31 11:05:25;;;;;;;;;5.67;5.33;;;;;13.20;73.67;101966.63;5093460;27;45437;-66
2021/12/31 11:07:52;;;;;;;;;7.67;4.33;;;;;13.21;73.44;101967.53;5085285;27;45338;-66
2021/12/31 11:10:24;;;;;;;;;6.00;6.00;;;;;13.21;73.26;101960.44;5095027;27;45298;-66
2021/12/31 11:12:52;;;;;;;;;7.00;6.67;;;;;13.18;73.92;101939.13;5081985;27;45410;-66
2021/12/31 11:15:17;;;;;;;;;5.67;5.33;;;;;13.22;73.92;101940.13;5093324;27;45384;-65
2021/12/31 11:17:43;;;;;;;;;5.00;5.00;;;;;13.24;72.63;101938.41;5081624;27;45291;-66